sensor_id;sensor_type;location;lat;lon;timestamp;P1;durP1;ratioP1;P2;durP2;ratioP2
54705;SDS011;40603;48.774;8.916;2023-06-14T00:01:09;5.80;;;3.58;;
54705;SDS011;40603;48.774;8.916;2023-06-14T00:03:34;5.55;;;3.00;;
54705;SDS011;40603;48.774;8.916;2023-06-14T00:06:00;8.57;;;3.40;;
54705;SDS011;40603;48.774;8.916;2023-06-14T00:08:25;4.07;;;2.90;;
54705;SDS011;40603;48.774;8.916;2023-06-14T00:10:50;4.25;;;3.22;;
54705;SDS011;40603;48.774;8.916;2023-06-14T00:13:16;6.15;;;3.58;;
54705;SDS011;40603;48.774;8.916;2023-06-14T00:15:41;7.28;;;3.55;;
54705;SDS011;40603;48.774;8.916;2023-06-14T00:18:07;6.28;;;3.20;;
54705;SDS011;40603;48.774;8.916;2023-06-14T00:20:34;6.53;;;3.88;;
54705;SDS011;40603;48.774;8.916;2023-06-14T00:23:00;9.27;;;3.83;;
54705;SDS011;40603;48.774;8.916;2023-06-14T00:25:25;6.45;;;3.45;;
54705;SDS011;40603;48.774;8.916;2023-06-14T00:27:51;7.60;;;3.63;;
54705;SDS011;40603;48.774;8.916;2023-06-14T00:30:16;7.95;;;4.78;;
54705;SDS011;40603;48.774;8.916;2023-06-14T00:32:42;9.35;;;4.78;;
54705;SDS011;40603;48.774;8.916;2023-06-14T00:35:08;8.13;;;4.07;;
54705;SDS011;40603;48.774;8.916;2023-06-14T00:37:34;5.07;;;3.63;;
54705;SDS011;40603;48.774;8.916;2023-06-14T00:40:00;4.97;;;3.40;;
54705;SDS011;40603;48.774;8.916;2023-06-14T00:42:25;5.07;;;3.63;;
54705;SDS011;40603;48.774;8.916;2023-06-14T00:44:51;6.30;;;3.97;;
54705;SDS011;40603;48.774;8.916;2023-06-14T00:47:17;11.48;;;4.60;;
54705;SDS011;40603;48.774;8.916;2023-06-14T00:49:42;16.42;;;4.47;;
54705;SDS011;40603;48.774;8.916;2023-06-14T00:52:09;9.25;;;4.40;;
54705;SDS011;40603;48.774;8.916;2023-06-14T00:54:37;9.77;;;4.78;;
54705;SDS011;40603;48.774;8.916;2023-06-14T00:57:03;7.32;;;4.28;;
54705;SDS011;40603;48.774;8.916;2023-06-14T00:59:28;6.88;;;4.40;;
54705;SDS011;40603;48.774;8.916;2023-06-14T01:01:54;7.38;;;4.60;;
54705;SDS011;40603;48.774;8.916;2023-06-14T01:04:19;11.55;;;5.07;;
54705;SDS011;40603;48.774;8.916;2023-06-14T01:06:47;7.50;;;4.35;;
54705;SDS011;40603;48.774;8.916;2023-06-14T01:09:22;9.45;;;4.28;;
54705;SDS011;40603;48.774;8.916;2023-06-14T01:14:21;6.28;;;4.45;;
54705;SDS011;40603;48.774;8.916;2023-06-14T01:16:47;6.78;;;4.30;;
54705;SDS011;40603;48.774;8.916;2023-06-14T01:19:17;8.68;;;4.22;;
54705;SDS011;40603;48.774;8.916;2023-06-14T01:21:44;5.53;;;4.13;;
54705;SDS011;40603;48.774;8.916;2023-06-14T01:24:09;9.00;;;4.07;;
54705;SDS011;40603;48.774;8.916;2023-06-14T01:26:36;4.35;;;3.70;;
54705;SDS011;40603;48.774;8.916;2023-06-14T01:29:02;4.80;;;3.45;;
54705;SDS011;40603;48.774;8.916;2023-06-14T01:31:28;6.65;;;3.42;;
54705;SDS011;40603;48.774;8.916;2023-06-14T01:33:54;6.38;;;3.85;;
54705;SDS011;40603;48.774;8.916;2023-06-14T01:36:20;7.50;;;3.83;;
54705;SDS011;40603;48.774;8.916;2023-06-14T01:38:46;5.15;;;3.60;;
54705;SDS011;40603;48.774;8.916;2023-06-14T01:41:13;7.88;;;3.85;;
54705;SDS011;40603;48.774;8.916;2023-06-14T01:43:39;5.18;;;3.53;;
54705;SDS011;40603;48.774;8.916;2023-06-14T01:46:05;4.95;;;3.92;;
54705;SDS011;40603;48.774;8.916;2023-06-14T01:48:31;5.63;;;3.75;;
54705;SDS011;40603;48.774;8.916;2023-06-14T01:50:57;6.25;;;3.72;;
54705;SDS011;40603;48.774;8.916;2023-06-14T01:53:22;4.00;;;3.08;;
54705;SDS011;40603;48.774;8.916;2023-06-14T01:55:47;6.00;;;3.78;;
54705;SDS011;40603;48.774;8.916;2023-06-14T01:58:13;5.47;;;3.72;;
54705;SDS011;40603;48.774;8.916;2023-06-14T02:00:39;5.70;;;3.75;;
54705;SDS011;40603;48.774;8.916;2023-06-14T02:03:05;6.70;;;3.65;;
54705;SDS011;40603;48.774;8.916;2023-06-14T02:05:30;6.07;;;3.78;;
54705;SDS011;40603;48.774;8.916;2023-06-14T02:07:55;9.00;;;4.10;;
54705;SDS011;40603;48.774;8.916;2023-06-14T02:10:21;6.18;;;4.10;;
54705;SDS011;40603;48.774;8.916;2023-06-14T02:12:46;9.85;;;4.10;;
54705;SDS011;40603;48.774;8.916;2023-06-14T02:15:12;3.92;;;3.35;;
54705;SDS011;40603;48.774;8.916;2023-06-14T02:17:44;7.40;;;3.90;;
54705;SDS011;40603;48.774;8.916;2023-06-14T02:20:12;5.10;;;4.07;;
54705;SDS011;40603;48.774;8.916;2023-06-14T02:22:38;4.97;;;3.60;;
54705;SDS011;40603;48.774;8.916;2023-06-14T02:25:03;11.85;;;3.63;;
54705;SDS011;40603;48.774;8.916;2023-06-14T02:27:29;7.47;;;3.75;;
54705;SDS011;40603;48.774;8.916;2023-06-14T02:29:54;5.45;;;3.75;;
54705;SDS011;40603;48.774;8.916;2023-06-14T02:32:19;8.20;;;3.80;;
54705;SDS011;40603;48.774;8.916;2023-06-14T02:34:45;7.75;;;4.10;;
54705;SDS011;40603;48.774;8.916;2023-06-14T02:37:14;5.10;;;3.30;;
54705;SDS011;40603;48.774;8.916;2023-06-14T02:39:39;7.13;;;3.78;;
54705;SDS011;40603;48.774;8.916;2023-06-14T02:42:05;5.03;;;3.30;;
54705;SDS011;40603;48.774;8.916;2023-06-14T02:44:31;6.63;;;4.15;;
54705;SDS011;40603;48.774;8.916;2023-06-14T02:46:57;4.90;;;3.80;;
54705;SDS011;40603;48.774;8.916;2023-06-14T02:49:23;6.03;;;4.07;;
54705;SDS011;40603;48.774;8.916;2023-06-14T02:51:49;5.63;;;3.53;;
54705;SDS011;40603;48.774;8.916;2023-06-14T02:54:14;15.23;;;3.70;;
54705;SDS011;40603;48.774;8.916;2023-06-14T02:56:39;5.43;;;3.80;;
54705;SDS011;40603;48.774;8.916;2023-06-14T02:59:05;8.43;;;4.10;;
54705;SDS011;40603;48.774;8.916;2023-06-14T03:01:31;6.20;;;3.80;;
54705;SDS011;40603;48.774;8.916;2023-06-14T03:04:02;5.30;;;3.60;;
54705;SDS011;40603;48.774;8.916;2023-06-14T03:06:28;10.23;;;3.83;;
54705;SDS011;40603;48.774;8.916;2023-06-14T03:08:55;5.82;;;4.20;;
54705;SDS011;40603;48.774;8.916;2023-06-14T03:11:24;6.50;;;3.50;;
54705;SDS011;40603;48.774;8.916;2023-06-14T03:13:50;6.20;;;3.88;;
54705;SDS011;40603;48.774;8.916;2023-06-14T03:16:16;6.20;;;3.75;;
54705;SDS011;40603;48.774;8.916;2023-06-14T03:18:42;4.82;;;3.60;;
54705;SDS011;40603;48.774;8.916;2023-06-14T03:21:07;9.68;;;4.18;;
54705;SDS011;40603;48.774;8.916;2023-06-14T03:23:34;10.85;;;3.83;;
54705;SDS011;40603;48.774;8.916;2023-06-14T03:25:59;9.93;;;4.32;;
54705;SDS011;40603;48.774;8.916;2023-06-14T03:28:24;6.05;;;4.03;;
54705;SDS011;40603;48.774;8.916;2023-06-14T03:30:50;6.55;;;3.47;;
54705;SDS011;40603;48.774;8.916;2023-06-14T03:33:16;5.13;;;3.85;;
54705;SDS011;40603;48.774;8.916;2023-06-14T03:35:41;6.00;;;3.80;;
54705;SDS011;40603;48.774;8.916;2023-06-14T03:38:08;6.18;;;3.80;;
54705;SDS011;40603;48.774;8.916;2023-06-14T03:40:33;7.18;;;4.00;;
54705;SDS011;40603;48.774;8.916;2023-06-14T03:42:58;6.35;;;3.28;;
54705;SDS011;40603;48.774;8.916;2023-06-14T03:45:24;6.20;;;3.45;;
54705;SDS011;40603;48.774;8.916;2023-06-14T03:47:49;5.35;;;3.55;;
54705;SDS011;40603;48.774;8.916;2023-06-14T03:50:15;7.53;;;3.97;;
54705;SDS011;40603;48.774;8.916;2023-06-14T03:52:40;4.85;;;3.80;;
54705;SDS011;40603;48.774;8.916;2023-06-14T03:55:08;6.22;;;3.47;;
54705;SDS011;40603;48.774;8.916;2023-06-14T03:57:33;7.30;;;3.83;;
54705;SDS011;40603;48.774;8.916;2023-06-14T03:59:58;5.95;;;3.72;;
54705;SDS011;40603;48.774;8.916;2023-06-14T04:02:24;5.78;;;3.63;;
54705;SDS011;40603;48.774;8.916;2023-06-14T04:04:50;5.53;;;3.88;;
54705;SDS011;40603;48.774;8.916;2023-06-14T04:07:16;5.43;;;3.50;;
54705;SDS011;40603;48.774;8.916;2023-06-14T04:09:44;7.25;;;4.35;;
54705;SDS011;40603;48.774;8.916;2023-06-14T04:12:10;6.95;;;3.88;;
54705;SDS011;40603;48.774;8.916;2023-06-14T04:14:36;9.50;;;3.47;;
54705;SDS011;40603;48.774;8.916;2023-06-14T04:17:02;6.07;;;3.63;;
54705;SDS011;40603;48.774;8.916;2023-06-14T04:19:27;5.07;;;3.47;;
54705;SDS011;40603;48.774;8.916;2023-06-14T04:21:53;8.27;;;3.90;;
54705;SDS011;40603;48.774;8.916;2023-06-14T04:24:18;6.40;;;3.88;;
54705;SDS011;40603;48.774;8.916;2023-06-14T04:26:43;6.43;;;3.72;;
54705;SDS011;40603;48.774;8.916;2023-06-14T04:29:10;7.60;;;3.85;;
54705;SDS011;40603;48.774;8.916;2023-06-14T04:31:39;5.78;;;4.10;;
54705;SDS011;40603;48.774;8.916;2023-06-14T04:34:07;6.75;;;4.00;;
54705;SDS011;40603;48.774;8.916;2023-06-14T04:36:33;9.98;;;4.57;;
54705;SDS011;40603;48.774;8.916;2023-06-14T04:39:02;4.88;;;3.97;;
54705;SDS011;40603;48.774;8.916;2023-06-14T04:41:29;8.75;;;4.18;;
54705;SDS011;40603;48.774;8.916;2023-06-14T04:43:56;10.93;;;4.55;;
54705;SDS011;40603;48.774;8.916;2023-06-14T04:48:53;7.07;;;4.53;;
54705;SDS011;40603;48.774;8.916;2023-06-14T04:51:19;6.97;;;4.18;;
54705;SDS011;40603;48.774;8.916;2023-06-14T04:53:47;5.43;;;4.00;;
54705;SDS011;40603;48.774;8.916;2023-06-14T04:56:14;9.80;;;3.63;;
54705;SDS011;40603;48.774;8.916;2023-06-14T04:58:39;7.05;;;4.00;;
54705;SDS011;40603;48.774;8.916;2023-06-14T05:01:05;6.30;;;4.13;;
54705;SDS011;40603;48.774;8.916;2023-06-14T05:03:30;5.50;;;4.05;;
54705;SDS011;40603;48.774;8.916;2023-06-14T05:05:56;5.78;;;4.07;;
54705;SDS011;40603;48.774;8.916;2023-06-14T05:08:21;5.38;;;4.05;;
54705;SDS011;40603;48.774;8.916;2023-06-14T05:10:50;8.38;;;3.78;;
54705;SDS011;40603;48.774;8.916;2023-06-14T05:13:16;5.60;;;4.10;;
54705;SDS011;40603;48.774;8.916;2023-06-14T05:15:42;5.60;;;3.85;;
54705;SDS011;40603;48.774;8.916;2023-06-14T05:18:07;7.32;;;4.25;;
54705;SDS011;40603;48.774;8.916;2023-06-14T05:20:34;9.60;;;3.97;;
54705;SDS011;40603;48.774;8.916;2023-06-14T05:23:01;6.95;;;4.82;;
54705;SDS011;40603;48.774;8.916;2023-06-14T05:25:27;6.32;;;4.13;;
54705;SDS011;40603;48.774;8.916;2023-06-14T05:27:53;6.80;;;4.40;;
54705;SDS011;40603;48.774;8.916;2023-06-14T05:30:18;6.25;;;4.05;;
54705;SDS011;40603;48.774;8.916;2023-06-14T05:32:43;6.05;;;4.10;;
54705;SDS011;40603;48.774;8.916;2023-06-14T05:35:09;9.35;;;4.72;;
54705;SDS011;40603;48.774;8.916;2023-06-14T05:37:35;10.75;;;4.95;;
54705;SDS011;40603;48.774;8.916;2023-06-14T05:40:01;8.05;;;4.22;;
54705;SDS011;40603;48.774;8.916;2023-06-14T05:42:29;5.93;;;4.00;;
54705;SDS011;40603;48.774;8.916;2023-06-14T05:44:54;5.15;;;3.88;;
54705;SDS011;40603;48.774;8.916;2023-06-14T05:47:20;6.90;;;4.45;;
54705;SDS011;40603;48.774;8.916;2023-06-14T05:49:45;9.30;;;4.60;;
54705;SDS011;40603;48.774;8.916;2023-06-14T05:52:11;8.63;;;4.35;;
54705;SDS011;40603;48.774;8.916;2023-06-14T05:54:37;14.18;;;4.53;;
54705;SDS011;40603;48.774;8.916;2023-06-14T05:57:03;5.63;;;4.13;;
54705;SDS011;40603;48.774;8.916;2023-06-14T05:59:30;9.02;;;4.72;;
54705;SDS011;40603;48.774;8.916;2023-06-14T06:01:55;8.13;;;4.13;;
54705;SDS011;40603;48.774;8.916;2023-06-14T06:04:20;9.77;;;4.30;;
54705;SDS011;40603;48.774;8.916;2023-06-14T06:06:46;6.90;;;3.65;;
54705;SDS011;40603;48.774;8.916;2023-06-14T06:09:12;7.30;;;4.57;;
54705;SDS011;40603;48.774;8.916;2023-06-14T06:11:39;6.78;;;4.10;;
54705;SDS011;40603;48.774;8.916;2023-06-14T06:14:05;6.45;;;3.80;;
54705;SDS011;40603;48.774;8.916;2023-06-14T06:16:30;4.97;;;3.63;;
54705;SDS011;40603;48.774;8.916;2023-06-14T06:18:55;8.07;;;3.70;;
54705;SDS011;40603;48.774;8.916;2023-06-14T06:21:20;8.18;;;3.75;;
54705;SDS011;40603;48.774;8.916;2023-06-14T06:23:46;4.80;;;3.63;;
54705;SDS011;40603;48.774;8.916;2023-06-14T06:26:11;6.47;;;3.38;;
54705;SDS011;40603;48.774;8.916;2023-06-14T06:28:36;5.80;;;3.53;;
54705;SDS011;40603;48.774;8.916;2023-06-14T06:31:02;6.05;;;3.15;;
54705;SDS011;40603;48.774;8.916;2023-06-14T06:33:28;10.07;;;3.90;;
54705;SDS011;40603;48.774;8.916;2023-06-14T06:35:53;9.73;;;3.60;;
54705;SDS011;40603;48.774;8.916;2023-06-14T06:38:18;8.25;;;3.53;;
54705;SDS011;40603;48.774;8.916;2023-06-14T06:40:44;10.25;;;3.40;;
54705;SDS011;40603;48.774;8.916;2023-06-14T06:43:09;6.30;;;3.30;;
54705;SDS011;40603;48.774;8.916;2023-06-14T06:45:38;5.55;;;3.70;;
54705;SDS011;40603;48.774;8.916;2023-06-14T06:48:03;9.98;;;3.30;;
54705;SDS011;40603;48.774;8.916;2023-06-14T06:50:29;9.38;;;3.53;;
54705;SDS011;40603;48.774;8.916;2023-06-14T06:52:55;6.85;;;3.75;;
54705;SDS011;40603;48.774;8.916;2023-06-14T06:55:20;7.10;;;3.13;;
54705;SDS011;40603;48.774;8.916;2023-06-14T06:57:46;9.13;;;3.58;;
54705;SDS011;40603;48.774;8.916;2023-06-14T07:00:11;7.40;;;3.28;;
54705;SDS011;40603;48.774;8.916;2023-06-14T07:02:37;5.80;;;3.65;;
54705;SDS011;40603;48.774;8.916;2023-06-14T07:05:03;4.75;;;3.28;;
54705;SDS011;40603;48.774;8.916;2023-06-14T07:07:29;10.52;;;3.85;;
54705;SDS011;40603;48.774;8.916;2023-06-14T07:09:54;11.35;;;3.80;;
54705;SDS011;40603;48.774;8.916;2023-06-14T07:12:22;4.35;;;3.25;;
54705;SDS011;40603;48.774;8.916;2023-06-14T07:14:47;8.52;;;3.83;;
54705;SDS011;40603;48.774;8.916;2023-06-14T07:17:13;10.13;;;4.70;;
54705;SDS011;40603;48.774;8.916;2023-06-14T07:19:38;7.82;;;3.45;;
54705;SDS011;40603;48.774;8.916;2023-06-14T07:22:03;9.77;;;3.55;;
54705;SDS011;40603;48.774;8.916;2023-06-14T07:24:29;7.45;;;3.42;;
54705;SDS011;40603;48.774;8.916;2023-06-14T07:26:54;7.55;;;3.90;;
54705;SDS011;40603;48.774;8.916;2023-06-14T07:29:20;7.18;;;4.00;;
54705;SDS011;40603;48.774;8.916;2023-06-14T07:31:46;6.38;;;3.75;;
54705;SDS011;40603;48.774;8.916;2023-06-14T07:34:11;6.03;;;3.38;;
54705;SDS011;40603;48.774;8.916;2023-06-14T07:36:37;8.77;;;3.83;;
54705;SDS011;40603;48.774;8.916;2023-06-14T07:39:03;10.15;;;4.13;;
54705;SDS011;40603;48.774;8.916;2023-06-14T07:41:28;10.65;;;3.70;;
54705;SDS011;40603;48.774;8.916;2023-06-14T07:43:54;8.93;;;3.00;;
54705;SDS011;40603;48.774;8.916;2023-06-14T07:46:20;10.07;;;4.13;;
54705;SDS011;40603;48.774;8.916;2023-06-14T07:48:45;13.70;;;3.63;;
54705;SDS011;40603;48.774;8.916;2023-06-14T07:51:10;7.78;;;3.45;;
54705;SDS011;40603;48.774;8.916;2023-06-14T07:53:36;6.32;;;3.40;;
54705;SDS011;40603;48.774;8.916;2023-06-14T07:56:01;15.13;;;3.92;;
54705;SDS011;40603;48.774;8.916;2023-06-14T07:58:27;9.13;;;3.40;;
54705;SDS011;40603;48.774;8.916;2023-06-14T08:00:53;7.05;;;3.38;;
54705;SDS011;40603;48.774;8.916;2023-06-14T08:03:18;6.30;;;3.55;;
54705;SDS011;40603;48.774;8.916;2023-06-14T08:05:44;7.00;;;3.80;;
54705;SDS011;40603;48.774;8.916;2023-06-14T08:08:09;6.50;;;3.40;;
54705;SDS011;40603;48.774;8.916;2023-06-14T08:10:35;7.97;;;3.88;;
54705;SDS011;40603;48.774;8.916;2023-06-14T08:13:00;6.72;;;3.38;;
54705;SDS011;40603;48.774;8.916;2023-06-14T08:15:25;4.82;;;3.45;;
54705;SDS011;40603;48.774;8.916;2023-06-14T08:17:51;6.78;;;3.88;;
54705;SDS011;40603;48.774;8.916;2023-06-14T08:20:16;8.40;;;3.78;;
54705;SDS011;40603;48.774;8.916;2023-06-14T08:22:42;14.10;;;4.38;;
54705;SDS011;40603;48.774;8.916;2023-06-14T08:25:07;6.72;;;3.65;;
54705;SDS011;40603;48.774;8.916;2023-06-14T08:27:33;12.25;;;3.65;;
54705;SDS011;40603;48.774;8.916;2023-06-14T08:29:59;8.13;;;3.45;;
54705;SDS011;40603;48.774;8.916;2023-06-14T08:32:24;4.57;;;3.50;;
54705;SDS011;40603;48.774;8.916;2023-06-14T08:34:49;8.05;;;4.05;;
54705;SDS011;40603;48.774;8.916;2023-06-14T08:37:15;6.38;;;3.58;;
54705;SDS011;40603;48.774;8.916;2023-06-14T08:39:41;9.88;;;3.97;;
54705;SDS011;40603;48.774;8.916;2023-06-14T08:42:06;8.10;;;3.95;;
54705;SDS011;40603;48.774;8.916;2023-06-14T08:44:32;10.68;;;3.33;;
54705;SDS011;40603;48.774;8.916;2023-06-14T08:46:58;9.65;;;4.05;;
54705;SDS011;40603;48.774;8.916;2023-06-14T08:49:24;8.63;;;4.35;;
54705;SDS011;40603;48.774;8.916;2023-06-14T08:51:50;9.93;;;3.53;;
54705;SDS011;40603;48.774;8.916;2023-06-14T08:54:22;11.02;;;3.40;;
54705;SDS011;40603;48.774;8.916;2023-06-14T08:56:49;8.35;;;3.22;;
54705;SDS011;40603;48.774;8.916;2023-06-14T08:59:16;8.23;;;3.50;;
54705;SDS011;40603;48.774;8.916;2023-06-14T09:01:43;4.40;;;3.63;;
54705;SDS011;40603;48.774;8.916;2023-06-14T09:04:10;6.68;;;3.45;;
54705;SDS011;40603;48.774;8.916;2023-06-14T09:06:35;6.75;;;3.53;;
54705;SDS011;40603;48.774;8.916;2023-06-14T09:09:01;5.18;;;3.47;;
54705;SDS011;40603;48.774;8.916;2023-06-14T09:11:29;6.63;;;3.47;;
54705;SDS011;40603;48.774;8.916;2023-06-14T09:13:55;6.75;;;3.67;;
54705;SDS011;40603;48.774;8.916;2023-06-14T09:16:20;5.60;;;4.20;;
54705;SDS011;40603;48.774;8.916;2023-06-14T09:18:46;5.78;;;3.63;;
54705;SDS011;40603;48.774;8.916;2023-06-14T09:21:15;9.93;;;3.75;;
54705;SDS011;40603;48.774;8.916;2023-06-14T09:23:42;4.10;;;3.28;;
54705;SDS011;40603;48.774;8.916;2023-06-14T09:26:09;6.97;;;3.83;;
54705;SDS011;40603;48.774;8.916;2023-06-14T09:28:35;6.93;;;4.00;;
54705;SDS011;40603;48.774;8.916;2023-06-14T09:31:01;4.40;;;3.40;;
54705;SDS011;40603;48.774;8.916;2023-06-14T09:33:27;10.05;;;3.80;;
54705;SDS011;40603;48.774;8.916;2023-06-14T09:35:55;5.53;;;3.70;;
54705;SDS011;40603;48.774;8.916;2023-06-14T09:38:20;10.40;;;3.63;;
54705;SDS011;40603;48.774;8.916;2023-06-14T09:40:46;8.15;;;3.55;;
54705;SDS011;40603;48.774;8.916;2023-06-14T09:43:11;5.25;;;3.92;;
54705;SDS011;40603;48.774;8.916;2023-06-14T09:45:37;7.03;;;4.07;;
54705;SDS011;40603;48.774;8.916;2023-06-14T09:48:04;8.25;;;4.18;;
54705;SDS011;40603;48.774;8.916;2023-06-14T09:50:31;11.27;;;3.83;;
54705;SDS011;40603;48.774;8.916;2023-06-14T09:52:58;7.47;;;3.60;;
54705;SDS011;40603;48.774;8.916;2023-06-14T09:55:27;14.68;;;4.10;;
54705;SDS011;40603;48.774;8.916;2023-06-14T09:57:55;5.07;;;3.30;;
54705;SDS011;40603;48.774;8.916;2023-06-14T10:00:21;14.13;;;3.80;;
54705;SDS011;40603;48.774;8.916;2023-06-14T10:02:49;7.65;;;3.92;;
54705;SDS011;40603;48.774;8.916;2023-06-14T10:05:18;3.78;;;3.30;;
54705;SDS011;40603;48.774;8.916;2023-06-14T10:07:52;4.43;;;3.00;;
54705;SDS011;40603;48.774;8.916;2023-06-14T10:10:38;6.78;;;3.42;;
54705;SDS011;40603;48.774;8.916;2023-06-14T10:13:04;5.07;;;3.30;;
54705;SDS011;40603;48.774;8.916;2023-06-14T10:15:32;9.68;;;3.28;;
54705;SDS011;40603;48.774;8.916;2023-06-14T10:23:35;9.10;;;3.65;;
54705;SDS011;40603;48.774;8.916;2023-06-14T10:26:02;6.22;;;3.50;;
54705;SDS011;40603;48.774;8.916;2023-06-14T10:28:28;7.00;;;3.40;;
54705;SDS011;40603;48.774;8.916;2023-06-14T10:31:11;9.40;;;3.85;;
54705;SDS011;40603;48.774;8.916;2023-06-14T10:38:47;6.75;;;3.42;;
54705;SDS011;40603;48.774;8.916;2023-06-14T10:41:29;7.07;;;3.63;;
54705;SDS011;40603;48.774;8.916;2023-06-14T10:46:59;7.60;;;3.50;;
54705;SDS011;40603;48.774;8.916;2023-06-14T10:52:07;7.43;;;3.20;;
54705;SDS011;40603;48.774;8.916;2023-06-14T10:54:34;5.78;;;3.13;;
54705;SDS011;40603;48.774;8.916;2023-06-14T10:56:59;7.28;;;3.28;;
54705;SDS011;40603;48.774;8.916;2023-06-14T10:59:25;3.45;;;2.90;;
54705;SDS011;40603;48.774;8.916;2023-06-14T11:04:47;5.75;;;3.22;;
54705;SDS011;40603;48.774;8.916;2023-06-14T11:07:35;7.05;;;3.60;;
54705;SDS011;40603;48.774;8.916;2023-06-14T11:13:06;7.97;;;3.13;;
54705;SDS011;40603;48.774;8.916;2023-06-14T11:15:32;4.22;;;2.90;;
54705;SDS011;40603;48.774;8.916;2023-06-14T11:18:05;14.20;;;3.40;;
54705;SDS011;40603;48.774;8.916;2023-06-14T11:20:32;6.68;;;3.03;;
54705;SDS011;40603;48.774;8.916;2023-06-14T11:22:58;7.60;;;3.42;;
54705;SDS011;40603;48.774;8.916;2023-06-14T11:25:24;4.75;;;3.25;;
54705;SDS011;40603;48.774;8.916;2023-06-14T11:27:50;5.93;;;3.10;;
54705;SDS011;40603;48.774;8.916;2023-06-14T11:30:16;4.53;;;3.10;;
54705;SDS011;40603;48.774;8.916;2023-06-14T11:32:41;7.07;;;3.55;;
54705;SDS011;40603;48.774;8.916;2023-06-14T11:35:07;5.30;;;3.40;;
54705;SDS011;40603;48.774;8.916;2023-06-14T11:37:34;3.53;;;2.75;;
54705;SDS011;40603;48.774;8.916;2023-06-14T11:39:59;11.20;;;3.20;;
54705;SDS011;40603;48.774;8.916;2023-06-14T11:42:28;5.80;;;2.78;;
54705;SDS011;40603;48.774;8.916;2023-06-14T11:44:54;5.85;;;2.90;;
54705;SDS011;40603;48.774;8.916;2023-06-14T11:47:20;3.85;;;2.90;;
54705;SDS011;40603;48.774;8.916;2023-06-14T11:49:45;4.15;;;2.63;;
54705;SDS011;40603;48.774;8.916;2023-06-14T11:52:11;4.68;;;3.00;;
54705;SDS011;40603;48.774;8.916;2023-06-14T11:54:36;7.35;;;2.95;;
54705;SDS011;40603;48.774;8.916;2023-06-14T11:57:02;3.08;;;2.75;;
54705;SDS011;40603;48.774;8.916;2023-06-14T11:59:28;6.82;;;3.20;;
54705;SDS011;40603;48.774;8.916;2023-06-14T12:01:53;6.35;;;2.85;;
54705;SDS011;40603;48.774;8.916;2023-06-14T12:04:28;4.57;;;3.28;;
54705;SDS011;40603;48.774;8.916;2023-06-14T12:06:54;5.13;;;3.35;;
54705;SDS011;40603;48.774;8.916;2023-06-14T12:09:20;7.15;;;3.13;;
54705;SDS011;40603;48.774;8.916;2023-06-14T12:11:48;6.93;;;2.90;;
54705;SDS011;40603;48.774;8.916;2023-06-14T12:14:13;3.70;;;2.85;;
54705;SDS011;40603;48.774;8.916;2023-06-14T12:16:39;5.53;;;3.30;;
54705;SDS011;40603;48.774;8.916;2023-06-14T12:19:12;4.20;;;3.00;;
54705;SDS011;40603;48.774;8.916;2023-06-14T12:21:38;9.07;;;3.58;;
54705;SDS011;40603;48.774;8.916;2023-06-14T12:24:05;4.47;;;3.10;;
54705;SDS011;40603;48.774;8.916;2023-06-14T12:26:31;8.30;;;3.40;;
54705;SDS011;40603;48.774;8.916;2023-06-14T12:28:57;5.53;;;2.90;;
54705;SDS011;40603;48.774;8.916;2023-06-14T12:31:22;5.57;;;2.90;;
54705;SDS011;40603;48.774;8.916;2023-06-14T12:33:47;3.65;;;3.05;;
54705;SDS011;40603;48.774;8.916;2023-06-14T12:36:16;4.50;;;2.83;;
54705;SDS011;40603;48.774;8.916;2023-06-14T12:38:42;4.38;;;2.80;;
54705;SDS011;40603;48.774;8.916;2023-06-14T12:41:07;5.78;;;3.65;;
54705;SDS011;40603;48.774;8.916;2023-06-14T12:43:33;6.60;;;3.28;;
54705;SDS011;40603;48.774;8.916;2023-06-14T12:45:59;6.68;;;3.00;;
54705;SDS011;40603;48.774;8.916;2023-06-14T12:48:24;4.32;;;2.42;;
54705;SDS011;40603;48.774;8.916;2023-06-14T12:50:52;4.78;;;2.88;;
54705;SDS011;40603;48.774;8.916;2023-06-14T12:53:17;6.38;;;2.80;;
54705;SDS011;40603;48.774;8.916;2023-06-14T12:55:42;5.50;;;2.90;;
54705;SDS011;40603;48.774;8.916;2023-06-14T12:58:07;9.57;;;3.15;;
54705;SDS011;40603;48.774;8.916;2023-06-14T13:00:33;8.50;;;3.20;;
54705;SDS011;40603;48.774;8.916;2023-06-14T13:03:00;4.30;;;2.63;;
54705;SDS011;40603;48.774;8.916;2023-06-14T13:05:25;4.50;;;2.80;;
54705;SDS011;40603;48.774;8.916;2023-06-14T13:07:51;7.05;;;2.90;;
54705;SDS011;40603;48.774;8.916;2023-06-14T13:10:17;6.15;;;3.00;;
54705;SDS011;40603;48.774;8.916;2023-06-14T13:12:42;4.47;;;3.00;;
54705;SDS011;40603;48.774;8.916;2023-06-14T13:15:07;5.00;;;2.72;;
54705;SDS011;40603;48.774;8.916;2023-06-14T13:17:33;8.43;;;2.92;;
54705;SDS011;40603;48.774;8.916;2023-06-14T13:20:03;2.78;;;2.47;;
54705;SDS011;40603;48.774;8.916;2023-06-14T13:22:31;3.88;;;2.70;;
54705;SDS011;40603;48.774;8.916;2023-06-14T13:24:57;6.20;;;3.40;;
54705;SDS011;40603;48.774;8.916;2023-06-14T13:27:22;5.53;;;3.00;;
54705;SDS011;40603;48.774;8.916;2023-06-14T13:29:49;6.68;;;2.80;;
54705;SDS011;40603;48.774;8.916;2023-06-14T13:32:14;8.48;;;3.10;;
54705;SDS011;40603;48.774;8.916;2023-06-14T13:34:40;4.78;;;3.03;;
54705;SDS011;40603;48.774;8.916;2023-06-14T13:37:05;6.82;;;3.08;;
54705;SDS011;40603;48.774;8.916;2023-06-14T13:39:30;5.53;;;2.90;;
54705;SDS011;40603;48.774;8.916;2023-06-14T13:41:56;4.93;;;2.47;;
54705;SDS011;40603;48.774;8.916;2023-06-14T13:44:21;5.20;;;2.60;;
54705;SDS011;40603;48.774;8.916;2023-06-14T13:46:46;4.65;;;2.90;;
54705;SDS011;40603;48.774;8.916;2023-06-14T13:49:12;5.28;;;2.95;;
54705;SDS011;40603;48.774;8.916;2023-06-14T13:51:37;8.43;;;2.63;;
54705;SDS011;40603;48.774;8.916;2023-06-14T13:54:03;6.40;;;2.70;;
54705;SDS011;40603;48.774;8.916;2023-06-14T13:56:28;4.82;;;3.08;;
54705;SDS011;40603;48.774;8.916;2023-06-14T13:58:54;4.93;;;2.50;;
54705;SDS011;40603;48.774;8.916;2023-06-14T14:01:20;7.78;;;2.72;;
54705;SDS011;40603;48.774;8.916;2023-06-14T14:03:46;5.63;;;2.83;;
54705;SDS011;40603;48.774;8.916;2023-06-14T14:06:11;10.45;;;3.13;;
54705;SDS011;40603;48.774;8.916;2023-06-14T14:08:37;5.53;;;2.70;;
54705;SDS011;40603;48.774;8.916;2023-06-14T14:11:02;3.55;;;2.30;;
54705;SDS011;40603;48.774;8.916;2023-06-14T14:13:28;10.70;;;4.80;;
54705;SDS011;40603;48.774;8.916;2023-06-14T14:15:53;3.50;;;3.00;;
54705;SDS011;40603;48.774;8.916;2023-06-14T14:18:19;5.05;;;2.70;;
54705;SDS011;40603;48.774;8.916;2023-06-14T14:20:45;6.88;;;3.40;;
54705;SDS011;40603;48.774;8.916;2023-06-14T14:23:11;5.20;;;2.35;;
54705;SDS011;40603;48.774;8.916;2023-06-14T14:25:36;4.88;;;2.55;;
54705;SDS011;40603;48.774;8.916;2023-06-14T14:28:02;7.95;;;3.17;;
54705;SDS011;40603;48.774;8.916;2023-06-14T14:30:27;8.32;;;2.92;;
54705;SDS011;40603;48.774;8.916;2023-06-14T14:32:53;4.30;;;2.88;;
54705;SDS011;40603;48.774;8.916;2023-06-14T14:35:18;7.90;;;3.05;;
54705;SDS011;40603;48.774;8.916;2023-06-14T14:37:44;5.55;;;3.20;;
54705;SDS011;40603;48.774;8.916;2023-06-14T14:40:09;5.03;;;2.75;;
54705;SDS011;40603;48.774;8.916;2023-06-14T14:42:35;5.72;;;2.72;;
54705;SDS011;40603;48.774;8.916;2023-06-14T14:45:01;5.18;;;2.75;;
54705;SDS011;40603;48.774;8.916;2023-06-14T14:47:26;6.38;;;2.70;;
54705;SDS011;40603;48.774;8.916;2023-06-14T14:49:51;3.28;;;2.55;;
54705;SDS011;40603;48.774;8.916;2023-06-14T14:52:16;3.05;;;2.67;;
54705;SDS011;40603;48.774;8.916;2023-06-14T14:54:42;5.13;;;2.55;;
54705;SDS011;40603;48.774;8.916;2023-06-14T14:57:07;6.18;;;2.80;;
54705;SDS011;40603;48.774;8.916;2023-06-14T14:59:32;6.70;;;2.90;;
54705;SDS011;40603;48.774;8.916;2023-06-14T15:01:58;4.13;;;2.67;;
54705;SDS011;40603;48.774;8.916;2023-06-14T15:04:23;5.30;;;2.75;;
54705;SDS011;40603;48.774;8.916;2023-06-14T15:06:48;4.88;;;2.67;;